VOI1084 MMGL-MMMY
Flight info
| Callsign | VOI1084 |
|---|---|
| Flight time | 1h 8m |
| Altitude | 35000 |
| Route | OTOKI1B OTOKI J42 ZCL UT5 SLW SLW1B |
| Aircraft | A321/M-SDE3FGHIRWY/LB1 |
Departure
| Time | 2026-05-04 01:01 |
|---|---|
| Airport | Guadalajara International Airport (MMGL) |
Arrival
| Time | 2026-05-04 02:09 |
|---|---|
| Airport | Monterrey International Airport (MMMY) |
| Time | Latitude | Longitude | Altitude | Speed | Heading |
|---|---|---|---|---|---|
| 2026-05-04 00:46 | 20.52450 | -103.30130 | 5029 ft | 0 kts | 19° |
| 2026-05-04 00:51 | 20.52435 | -103.30136 | 5029 ft | 4 kts | 24° |
| 2026-05-04 00:52 | 20.52412 | -103.30150 | 5023 ft | 4 kts | 45° |
| 2026-05-04 00:52 | 20.52399 | -103.30170 | 5023 ft | 4 kts | 94° |
| 2026-05-04 00:52 | 20.52400 | -103.30178 | 5023 ft | 0 kts | 109° |
| 2026-05-04 00:55 | 20.52398 | -103.30174 | 5029 ft | 2 kts | 109° |
| 2026-05-04 00:55 | 20.52392 | -103.30153 | 5027 ft | 4 kts | 109° |
| 2026-05-04 00:55 | 20.52380 | -103.30117 | 5026 ft | 6 kts | 109° |
| 2026-05-04 00:55 | 20.52364 | -103.30065 | 5025 ft | 9 kts | 109° |
| 2026-05-04 00:56 | 20.52342 | -103.29998 | 5029 ft | 11 kts | 109° |
| 2026-05-04 00:56 | 20.52315 | -103.29916 | 5028 ft | 13 kts | 113° |
| 2026-05-04 00:56 | 20.52272 | -103.29826 | 5029 ft | 15 kts | 117° |
| 2026-05-04 00:56 | 20.52198 | -103.29763 | 5029 ft | 15 kts | 190° |
| 2026-05-04 00:57 | 20.52093 | -103.29795 | 5029 ft | 16 kts | 175° |
| 2026-05-04 00:57 | 20.52040 | -103.29727 | 5029 ft | 6 kts | 115° |
| 2026-05-04 00:57 | 20.52020 | -103.29683 | 5029 ft | 8 kts | 114° |
| 2026-05-04 00:57 | 20.51996 | -103.29624 | 5029 ft | 10 kts | 114° |
| 2026-05-04 00:58 | 20.51965 | -103.29554 | 5030 ft | 11 kts | 120° |
| 2026-05-04 00:58 | 20.51914 | -103.29480 | 5030 ft | 13 kts | 127° |
| 2026-05-04 00:58 | 20.51853 | -103.29396 | 5030 ft | 16 kts | 127° |
| 2026-05-04 00:58 | 20.51783 | -103.29298 | 5029 ft | 18 kts | 127° |
| 2026-05-04 00:59 | 20.51707 | -103.29188 | 5029 ft | 19 kts | 130° |
| 2026-05-04 00:59 | 20.51585 | -103.29191 | 5029 ft | 19 kts | 204° |
| 2026-05-04 00:59 | 20.51531 | -103.29217 | 5028 ft | 9 kts | 204° |
| 2026-05-04 00:59 | 20.51467 | -103.29248 | 5027 ft | 9 kts | 204° |
| 2026-05-04 01:00 | 20.51425 | -103.29294 | 5027 ft | 9 kts | 263° |
| 2026-05-04 01:00 | 20.51433 | -103.29327 | 5025 ft | 0 kts | 291° |
| 2026-05-04 01:00 | 20.51445 | -103.29355 | 5028 ft | 13 kts | 294° |
| 2026-05-04 01:01 | 20.51577 | -103.29667 | 5029 ft | 79 kts | 294° |
| 2026-05-04 01:01 | 20.51882 | -103.30401 | 5028 ft | 135 kts | 294° |
| 2026-05-04 01:01 | 20.52330 | -103.31469 | 5034 ft | 178 kts | 294° |
| 2026-05-04 01:01 | 20.52827 | -103.32679 | 5767 ft | 174 kts | 291° |
| 2026-05-04 01:02 | 20.53331 | -103.33862 | 6332 ft | 176 kts | 294° |
| 2026-05-04 01:02 | 20.53846 | -103.35029 | 6922 ft | 170 kts | 294° |
| 2026-05-04 01:02 | 20.54344 | -103.36215 | 7099 ft | 182 kts | 292° |
| 2026-05-04 01:02 | 20.54864 | -103.37509 | 7226 ft | 198 kts | 293° |
| 2026-05-04 01:03 | 20.55442 | -103.38887 | 7373 ft | 209 kts | 294° |
| 2026-05-04 01:03 | 20.56057 | -103.40334 | 7506 ft | 219 kts | 294° |
| 2026-05-04 01:03 | 20.56691 | -103.41839 | 7623 ft | 232 kts | 294° |
| 2026-05-04 01:03 | 20.57358 | -103.43425 | 7964 ft | 236 kts | 294° |
| 2026-05-04 01:04 | 20.58035 | -103.45045 | 8362 ft | 240 kts | 293° |
| 2026-05-04 01:04 | 20.58723 | -103.46683 | 8840 ft | 243 kts | 294° |
| 2026-05-04 01:04 | 20.59783 | -103.48156 | 8983 ft | 266 kts | 324° |
| 2026-05-04 01:04 | 20.61596 | -103.48787 | 9209 ft | 289 kts | 358° |
| 2026-05-04 01:05 | 20.63566 | -103.48223 | 9625 ft | 304 kts | 30° |
| 2026-05-04 01:05 | 20.65062 | -103.46604 | 10054 ft | 316 kts | 57° |
| 2026-05-04 01:05 | 20.66055 | -103.44423 | 10179 ft | 337 kts | 68° |
| 2026-05-04 01:05 | 20.66925 | -103.42025 | 10299 ft | 356 kts | 68° |
| 2026-05-04 01:06 | 20.67835 | -103.39506 | 10502 ft | 369 kts | 69° |
| 2026-05-04 01:06 | 20.68809 | -103.36951 | 10944 ft | 373 kts | 64° |
| 2026-05-04 01:06 | 20.70028 | -103.34492 | 11445 ft | 375 kts | 55° |
| 2026-05-04 01:06 | 20.71811 | -103.32486 | 11923 ft | 374 kts | 34° |
| 2026-05-04 01:07 | 20.74066 | -103.31116 | 12424 ft | 374 kts | 20° |
| 2026-05-04 01:07 | 20.76533 | -103.30238 | 12950 ft | 375 kts | 15° |
| 2026-05-04 01:07 | 20.79025 | -103.29383 | 13500 ft | 377 kts | 16° |
| 2026-05-04 01:07 | 20.81519 | -103.28498 | 14000 ft | 379 kts | 17° |
| 2026-05-04 01:08 | 20.84026 | -103.27595 | 14482 ft | 382 kts | 17° |
| 2026-05-04 01:08 | 20.86552 | -103.26686 | 14963 ft | 383 kts | 17° |
| 2026-05-04 01:08 | 20.89092 | -103.25781 | 15465 ft | 385 kts | 17° |
| 2026-05-04 01:08 | 20.91640 | -103.24877 | 15963 ft | 387 kts | 17° |
| 2026-05-04 01:09 | 20.94200 | -103.23973 | 16447 ft | 389 kts | 17° |
| 2026-05-04 01:09 | 20.96772 | -103.23065 | 16951 ft | 390 kts | 17° |
| 2026-05-04 01:09 | 20.99355 | -103.22155 | 17466 ft | 392 kts | 17° |
| 2026-05-04 01:09 | 21.01958 | -103.21238 | 17981 ft | 394 kts | 17° |
| 2026-05-04 01:10 | 21.04568 | -103.20320 | 18440 ft | 396 kts | 16° |
| 2026-05-04 01:10 | 21.07156 | -103.19408 | 18885 ft | 397 kts | 16° |
| 2026-05-04 01:10 | 21.09786 | -103.18477 | 19316 ft | 400 kts | 17° |
| 2026-05-04 01:10 | 21.12471 | -103.17527 | 19750 ft | 402 kts | 16° |
| 2026-05-04 01:11 | 21.15135 | -103.16587 | 20175 ft | 404 kts | 15° |
| 2026-05-04 01:11 | 21.17815 | -103.15641 | 20572 ft | 407 kts | 15° |
| 2026-05-04 01:11 | 21.20478 | -103.14701 | 20990 ft | 409 kts | 15° |
| 2026-05-04 01:11 | 21.23188 | -103.13741 | 21392 ft | 411 kts | 16° |
| 2026-05-04 01:12 | 21.25948 | -103.12760 | 21795 ft | 414 kts | 15° |
| 2026-05-04 01:12 | 21.28691 | -103.11788 | 22082 ft | 416 kts | 16° |
| 2026-05-04 01:12 | 21.31414 | -103.10824 | 22435 ft | 419 kts | 15° |
| 2026-05-04 01:12 | 21.34195 | -103.09894 | 22801 ft | 420 kts | 13° |
| 2026-05-04 01:13 | 21.37030 | -103.09079 | 23164 ft | 422 kts | 11° |
| 2026-05-04 01:13 | 21.39889 | -103.08349 | 23495 ft | 424 kts | 10° |
| 2026-05-04 01:13 | 21.42775 | -103.07655 | 23788 ft | 426 kts | 9° |
| 2026-05-04 01:13 | 21.45674 | -103.06962 | 24091 ft | 428 kts | 10° |
| 2026-05-04 01:14 | 21.48583 | -103.06251 | 24397 ft | 429 kts | 10° |
| 2026-05-04 01:14 | 21.51497 | -103.05515 | 24700 ft | 431 kts | 10° |
| 2026-05-04 01:14 | 21.54427 | -103.04756 | 25001 ft | 433 kts | 11° |
| 2026-05-04 01:14 | 21.57359 | -103.03981 | 25307 ft | 435 kts | 11° |
| 2026-05-04 01:15 | 21.60301 | -103.03196 | 25604 ft | 436 kts | 11° |
| 2026-05-04 01:15 | 21.63257 | -103.02409 | 25899 ft | 438 kts | 11° |
| 2026-05-04 01:15 | 21.66219 | -103.01628 | 26195 ft | 440 kts | 10° |
| 2026-05-04 01:15 | 21.69202 | -103.00850 | 26493 ft | 441 kts | 10° |
| 2026-05-04 01:16 | 21.72187 | -103.00070 | 26803 ft | 443 kts | 10° |
| 2026-05-04 01:16 | 21.75192 | -102.99283 | 27066 ft | 444 kts | 10° |
| 2026-05-04 01:16 | 21.78197 | -102.98499 | 27364 ft | 446 kts | 10° |
| 2026-05-04 01:16 | 21.81224 | -102.97710 | 27648 ft | 448 kts | 10° |
| 2026-05-04 01:17 | 21.84216 | -102.96923 | 27920 ft | 449 kts | 10° |
| 2026-05-04 01:17 | 21.87257 | -102.96122 | 28195 ft | 451 kts | 10° |
| 2026-05-04 01:17 | 21.90308 | -102.95318 | 28470 ft | 452 kts | 10° |
| 2026-05-04 01:17 | 21.93379 | -102.94512 | 28747 ft | 454 kts | 9° |
| 2026-05-04 01:18 | 21.96452 | -102.93707 | 29036 ft | 455 kts | 9° |
| 2026-05-04 01:18 | 21.99538 | -102.92902 | 29301 ft | 457 kts | 9° |
| 2026-05-04 01:18 | 22.02635 | -102.92096 | 29579 ft | 458 kts | 9° |
| 2026-05-04 01:18 | 22.05737 | -102.91290 | 29832 ft | 460 kts | 9° |
| 2026-05-04 01:19 | 22.08855 | -102.90480 | 30086 ft | 460 kts | 9° |
| 2026-05-04 01:19 | 22.11962 | -102.89665 | 30406 ft | 459 kts | 9° |
| 2026-05-04 01:19 | 22.15066 | -102.88846 | 30726 ft | 459 kts | 9° |
| 2026-05-04 01:19 | 22.18168 | -102.88025 | 31052 ft | 458 kts | 9° |
| 2026-05-04 01:20 | 22.21258 | -102.87205 | 31367 ft | 457 kts | 9° |
| 2026-05-04 01:20 | 22.24345 | -102.86387 | 31689 ft | 457 kts | 9° |
| 2026-05-04 01:20 | 22.27428 | -102.85569 | 32007 ft | 456 kts | 9° |
| 2026-05-04 01:20 | 22.30508 | -102.84755 | 32315 ft | 455 kts | 8° |
| 2026-05-04 01:21 | 22.33578 | -102.83944 | 32609 ft | 455 kts | 8° |
| 2026-05-04 01:21 | 22.36652 | -102.83134 | 32936 ft | 454 kts | 8° |
| 2026-05-04 01:21 | 22.39723 | -102.82324 | 33292 ft | 453 kts | 8° |
| 2026-05-04 01:21 | 22.42786 | -102.81516 | 33640 ft | 452 kts | 8° |
| 2026-05-04 01:22 | 22.45838 | -102.80709 | 33968 ft | 451 kts | 8° |
| 2026-05-04 01:22 | 22.48887 | -102.79900 | 34244 ft | 450 kts | 8° |
| 2026-05-04 01:22 | 22.51894 | -102.79102 | 34517 ft | 450 kts | 8° |
| 2026-05-04 01:22 | 22.54928 | -102.78298 | 34777 ft | 450 kts | 8° |
| 2026-05-04 01:23 | 22.57966 | -102.77495 | 34894 ft | 448 kts | 8° |
| 2026-05-04 01:23 | 22.63992 | -102.75897 | 34989 ft | 445 kts | 8° |
| 2026-05-04 01:24 | 22.69991 | -102.74307 | 35075 ft | 444 kts | 8° |
| 2026-05-04 01:24 | 22.75990 | -102.72719 | 35155 ft | 443 kts | 8° |
| 2026-05-04 01:25 | 22.81982 | -102.71125 | 35226 ft | 443 kts | 8° |
| 2026-05-04 01:25 | 22.87951 | -102.69415 | 35238 ft | 448 kts | 14° |
| 2026-05-04 01:26 | 22.93542 | -102.66236 | 35248 ft | 458 kts | 25° |
| 2026-05-04 01:26 | 22.98995 | -102.62679 | 35226 ft | 458 kts | 25° |
| 2026-05-04 01:27 | 23.04459 | -102.59132 | 35140 ft | 457 kts | 24° |
| 2026-05-04 01:27 | 23.09925 | -102.55589 | 35048 ft | 457 kts | 24° |
| 2026-05-04 01:28 | 23.15386 | -102.52036 | 34950 ft | 457 kts | 24° |
| 2026-05-04 01:28 | 23.20846 | -102.48480 | 34866 ft | 457 kts | 24° |
| 2026-05-04 01:29 | 23.26259 | -102.44958 | 34871 ft | 457 kts | 24° |
| 2026-05-04 01:29 | 23.31715 | -102.41407 | 34872 ft | 457 kts | 24° |
| 2026-05-04 01:30 | 23.37160 | -102.37854 | 34874 ft | 456 kts | 24° |
| 2026-05-04 01:30 | 23.42601 | -102.34296 | 34879 ft | 456 kts | 24° |
| 2026-05-04 01:31 | 23.47126 | -102.31343 | 34884 ft | 455 kts | 24° |
| 2026-05-04 01:31 | 23.52553 | -102.27787 | 34887 ft | 455 kts | 24° |
| 2026-05-04 01:32 | 23.57981 | -102.24231 | 34891 ft | 455 kts | 24° |
| 2026-05-04 01:32 | 23.63419 | -102.20672 | 34892 ft | 456 kts | 24° |
| 2026-05-04 01:33 | 23.68851 | -102.17098 | 34900 ft | 456 kts | 24° |
| 2026-05-04 01:33 | 23.74285 | -102.13527 | 34901 ft | 456 kts | 24° |
| 2026-05-04 01:34 | 23.79717 | -102.09950 | 34909 ft | 456 kts | 24° |
| 2026-05-04 01:34 | 23.85156 | -102.06371 | 34908 ft | 456 kts | 24° |
| 2026-05-04 01:35 | 23.90594 | -102.02782 | 34911 ft | 456 kts | 24° |
| 2026-05-04 01:35 | 23.96034 | -101.99190 | 34919 ft | 457 kts | 24° |
| 2026-05-04 01:36 | 24.01440 | -101.95624 | 34930 ft | 457 kts | 24° |
| 2026-05-04 01:36 | 24.06880 | -101.92036 | 34931 ft | 457 kts | 24° |
| 2026-05-04 01:37 | 24.12318 | -101.88436 | 34938 ft | 457 kts | 24° |
| 2026-05-04 01:37 | 24.17747 | -101.84836 | 34945 ft | 456 kts | 24° |
| 2026-05-04 01:38 | 24.23181 | -101.81234 | 34952 ft | 456 kts | 24° |
| 2026-05-04 01:38 | 24.28617 | -101.77637 | 34957 ft | 456 kts | 24° |
| 2026-05-04 01:39 | 24.34059 | -101.74036 | 34962 ft | 456 kts | 24° |
| 2026-05-04 01:39 | 24.39483 | -101.70428 | 34968 ft | 456 kts | 24° |
| 2026-05-04 01:40 | 24.44910 | -101.66812 | 34972 ft | 456 kts | 24° |
| 2026-05-04 01:40 | 24.50342 | -101.63195 | 34967 ft | 456 kts | 24° |
| 2026-05-04 01:41 | 24.55767 | -101.59576 | 34967 ft | 456 kts | 24° |
| 2026-05-04 01:41 | 24.61195 | -101.55957 | 34982 ft | 456 kts | 24° |
| 2026-05-04 01:42 | 24.66615 | -101.52329 | 34974 ft | 456 kts | 24° |
| 2026-05-04 01:42 | 24.72004 | -101.48720 | 34977 ft | 456 kts | 24° |
| 2026-05-04 01:43 | 24.77426 | -101.45095 | 34990 ft | 455 kts | 24° |
| 2026-05-04 01:43 | 24.82841 | -101.41470 | 35001 ft | 455 kts | 24° |
| 2026-05-04 01:44 | 24.88244 | -101.37844 | 35011 ft | 455 kts | 24° |
| 2026-05-04 01:44 | 24.93650 | -101.34209 | 35027 ft | 455 kts | 24° |
| 2026-05-04 01:45 | 24.99058 | -101.30573 | 35038 ft | 455 kts | 24° |
| 2026-05-04 01:45 | 25.07166 | -101.25117 | 35055 ft | 455 kts | 24° |
| 2026-05-04 01:46 | 25.12568 | -101.21470 | 35064 ft | 455 kts | 24° |
| 2026-05-04 01:46 | 25.17955 | -101.17826 | 35061 ft | 454 kts | 24° |
| 2026-05-04 01:47 | 25.23365 | -101.14177 | 34693 ft | 457 kts | 24° |
| 2026-05-04 01:47 | 25.26099 | -101.12335 | 33826 ft | 465 kts | 24° |
| 2026-05-04 01:47 | 25.28875 | -101.10462 | 32973 ft | 469 kts | 24° |
| 2026-05-04 01:48 | 25.31674 | -101.08565 | 32226 ft | 472 kts | 25° |
| 2026-05-04 01:48 | 25.34455 | -101.06672 | 31776 ft | 468 kts | 25° |
| 2026-05-04 01:48 | 25.37225 | -101.04788 | 31235 ft | 466 kts | 25° |
| 2026-05-04 01:48 | 25.39984 | -101.02916 | 30696 ft | 465 kts | 25° |
| 2026-05-04 01:49 | 25.42735 | -101.01047 | 30144 ft | 463 kts | 25° |
| 2026-05-04 01:49 | 25.45477 | -100.99185 | 29568 ft | 460 kts | 25° |
| 2026-05-04 01:49 | 25.48188 | -100.97341 | 29034 ft | 457 kts | 26° |
| 2026-05-04 01:49 | 25.50738 | -100.95212 | 28479 ft | 463 kts | 39° |
| 2026-05-04 01:50 | 25.52773 | -100.92426 | 27897 ft | 471 kts | 54° |
| 2026-05-04 01:50 | 25.54122 | -100.89103 | 27317 ft | 477 kts | 71° |
| 2026-05-04 01:50 | 25.54666 | -100.85476 | 26738 ft | 480 kts | 86° |
| 2026-05-04 01:50 | 25.54713 | -100.81779 | 26143 ft | 479 kts | 88° |
| 2026-05-04 01:51 | 25.54740 | -100.78096 | 25547 ft | 478 kts | 88° |
| 2026-05-04 01:51 | 25.54763 | -100.74421 | 24980 ft | 476 kts | 88° |
| 2026-05-04 01:51 | 25.54785 | -100.70758 | 24408 ft | 475 kts | 88° |
| 2026-05-04 01:51 | 25.54806 | -100.67105 | 23848 ft | 474 kts | 88° |
| 2026-05-04 01:52 | 25.54824 | -100.63475 | 23344 ft | 469 kts | 88° |
| 2026-05-04 01:52 | 25.54842 | -100.59869 | 22786 ft | 465 kts | 88° |
| 2026-05-04 01:52 | 25.54863 | -100.56293 | 22183 ft | 464 kts | 88° |
| 2026-05-04 01:52 | 25.54884 | -100.52989 | 21838 ft | 457 kts | 88° |
| 2026-05-04 01:53 | 25.54905 | -100.49480 | 21331 ft | 454 kts | 88° |
| 2026-05-04 01:53 | 25.54923 | -100.45991 | 20873 ft | 451 kts | 88° |
| 2026-05-04 01:53 | 25.54939 | -100.42528 | 20437 ft | 449 kts | 88° |
| 2026-05-04 01:53 | 25.54953 | -100.39092 | 20052 ft | 444 kts | 88° |
| 2026-05-04 01:54 | 25.54967 | -100.35683 | 19617 ft | 441 kts | 88° |
| 2026-05-04 01:54 | 25.54984 | -100.32300 | 19168 ft | 438 kts | 88° |
| 2026-05-04 01:54 | 25.55229 | -100.28963 | 18736 ft | 431 kts | 75° |
| 2026-05-04 01:54 | 25.56141 | -100.25843 | 18285 ft | 422 kts | 60° |
| 2026-05-04 01:55 | 25.57652 | -100.23114 | 17820 ft | 410 kts | 46° |
| 2026-05-04 01:55 | 25.59612 | -100.20927 | 17590 ft | 391 kts | 33° |
| 2026-05-04 01:55 | 25.61807 | -100.19276 | 17368 ft | 376 kts | 26° |
| 2026-05-04 01:55 | 25.64014 | -100.17736 | 17140 ft | 374 kts | 27° |
| 2026-05-04 01:56 | 25.66209 | -100.16207 | 16928 ft | 373 kts | 27° |
| 2026-05-04 01:56 | 25.68404 | -100.14678 | 16698 ft | 372 kts | 27° |
| 2026-05-04 01:56 | 25.70591 | -100.13154 | 16482 ft | 371 kts | 27° |
| 2026-05-04 01:56 | 25.72772 | -100.11630 | 16264 ft | 370 kts | 27° |
| 2026-05-04 01:57 | 25.74948 | -100.10112 | 16047 ft | 369 kts | 27° |
| 2026-05-04 01:57 | 25.77122 | -100.08596 | 15834 ft | 368 kts | 27° |
| 2026-05-04 01:57 | 25.79294 | -100.07079 | 15617 ft | 368 kts | 27° |
| 2026-05-04 01:57 | 25.81454 | -100.05569 | 15406 ft | 367 kts | 27° |
| 2026-05-04 01:58 | 25.83609 | -100.04060 | 15198 ft | 366 kts | 28° |
| 2026-05-04 01:58 | 25.85757 | -100.02558 | 14972 ft | 365 kts | 28° |
| 2026-05-04 01:58 | 25.87942 | -100.01147 | 14591 ft | 359 kts | 18° |
| 2026-05-04 01:58 | 25.90311 | -100.00563 | 14243 ft | 345 kts | 356° |
| 2026-05-04 01:59 | 25.92634 | -100.00980 | 13876 ft | 335 kts | 335° |
| 2026-05-04 01:59 | 25.94610 | -100.02269 | 13300 ft | 328 kts | 314° |
| 2026-05-04 01:59 | 25.96018 | -100.04213 | 12822 ft | 322 kts | 300° |
| 2026-05-04 01:59 | 25.97204 | -100.06321 | 12314 ft | 322 kts | 300° |
| 2026-05-04 02:00 | 25.98416 | -100.08460 | 11471 ft | 333 kts | 301° |
| 2026-05-04 02:00 | 25.99674 | -100.10667 | 10636 ft | 343 kts | 301° |
| 2026-05-04 02:00 | 26.00949 | -100.12893 | 10294 ft | 336 kts | 301° |
| 2026-05-04 02:00 | 26.02181 | -100.15038 | 10181 ft | 322 kts | 301° |
| 2026-05-04 02:01 | 26.03361 | -100.17097 | 10058 ft | 309 kts | 301° |
| 2026-05-04 02:01 | 26.04208 | -100.19213 | 9929 ft | 294 kts | 279° |
| 2026-05-04 02:01 | 26.04084 | -100.21417 | 9631 ft | 286 kts | 250° |
| 2026-05-04 02:01 | 26.03030 | -100.23257 | 8955 ft | 293 kts | 220° |
| 2026-05-04 02:02 | 26.01340 | -100.24491 | 8315 ft | 286 kts | 210° |
| 2026-05-04 02:02 | 25.99666 | -100.25593 | 7875 ft | 273 kts | 209° |
| 2026-05-04 02:02 | 25.98077 | -100.26645 | 7484 ft | 259 kts | 209° |
| 2026-05-04 02:02 | 25.96571 | -100.27647 | 7134 ft | 246 kts | 208° |
| 2026-05-04 02:03 | 25.95128 | -100.28611 | 6793 ft | 239 kts | 207° |
| 2026-05-04 02:03 | 25.93706 | -100.29560 | 6480 ft | 234 kts | 207° |
| 2026-05-04 02:03 | 25.92350 | -100.30471 | 6137 ft | 220 kts | 207° |
| 2026-05-04 02:03 | 25.91037 | -100.31168 | 5823 ft | 201 kts | 188° |
| 2026-05-04 02:04 | 25.89732 | -100.31087 | 5539 ft | 181 kts | 159° |
| 2026-05-04 02:04 | 25.88726 | -100.30370 | 5268 ft | 167 kts | 133° |
| 2026-05-04 02:04 | 25.88096 | -100.29334 | 5027 ft | 158 kts | 122° |
| 2026-05-04 02:04 | 25.87532 | -100.28308 | 4801 ft | 155 kts | 122° |
| 2026-05-04 02:05 | 25.86972 | -100.27293 | 4574 ft | 154 kts | 122° |
| 2026-05-04 02:05 | 25.86410 | -100.26278 | 4345 ft | 154 kts | 122° |
| 2026-05-04 02:05 | 25.85849 | -100.25263 | 4137 ft | 154 kts | 122° |
| 2026-05-04 02:05 | 25.85289 | -100.24247 | 3906 ft | 154 kts | 122° |
| 2026-05-04 02:06 | 25.84733 | -100.23231 | 3704 ft | 154 kts | 122° |
| 2026-05-04 02:06 | 25.84176 | -100.22216 | 3498 ft | 153 kts | 122° |
| 2026-05-04 02:06 | 25.83633 | -100.21224 | 3398 ft | 146 kts | 122° |
| 2026-05-04 02:06 | 25.83102 | -100.20255 | 3152 ft | 145 kts | 122° |
| 2026-05-04 02:07 | 25.82581 | -100.19305 | 2926 ft | 143 kts | 122° |
| 2026-05-04 02:07 | 25.82064 | -100.18365 | 2717 ft | 143 kts | 122° |
| 2026-05-04 02:07 | 25.81553 | -100.17433 | 2517 ft | 143 kts | 122° |
| 2026-05-04 02:07 | 25.81035 | -100.16490 | 2304 ft | 145 kts | 122° |
| 2026-05-04 02:08 | 25.80510 | -100.15539 | 2090 ft | 144 kts | 122° |
| 2026-05-04 02:08 | 25.79992 | -100.14595 | 1909 ft | 143 kts | 121° |
| 2026-05-04 02:08 | 25.79478 | -100.13659 | 1758 ft | 142 kts | 121° |
| 2026-05-04 02:08 | 25.78975 | -100.12719 | 1600 ft | 142 kts | 121° |
| 2026-05-04 02:09 | 25.78459 | -100.11789 | 1353 ft | 141 kts | 122° |
| 2026-05-04 02:09 | 25.77983 | -100.10937 | 1281 ft | 110 kts | 121° |
| 2026-05-04 02:09 | 25.77676 | -100.10375 | 1278 ft | 60 kts | 121° |
| 2026-05-04 02:09 | 25.77497 | -100.10050 | 1274 ft | 44 kts | 121° |
| 2026-05-04 02:10 | 25.77352 | -100.09785 | 1273 ft | 38 kts | 121° |
| 2026-05-04 02:10 | 25.77292 | -100.09695 | 1272 ft | 9 kts | 154° |
| 2026-05-04 02:10 | 25.77226 | -100.09715 | 1266 ft | 9 kts | 211° |
| 2026-05-04 02:10 | 25.77213 | -100.09724 | 1266 ft | 3 kts | 211° |
| 2026-05-04 02:11 | 25.77191 | -100.09739 | 1266 ft | 5 kts | 211° |
| 2026-05-04 02:11 | 25.77161 | -100.09763 | 1267 ft | 6 kts | 228° |
| 2026-05-04 02:11 | 25.77152 | -100.09808 | 1267 ft | 6 kts | 275° |
| 2026-05-04 02:11 | 25.77174 | -100.09862 | 1269 ft | 12 kts | 300° |
| 2026-05-04 02:12 | 25.77210 | -100.09926 | 1270 ft | 16 kts | 301° |
| 2026-05-04 02:12 | 25.77267 | -100.10030 | 1272 ft | 16 kts | 301° |
| 2026-05-04 02:12 | 25.77325 | -100.10135 | 1274 ft | 16 kts | 301° |
| 2026-05-04 02:12 | 25.77383 | -100.10243 | 1275 ft | 16 kts | 301° |
| 2026-05-04 02:13 | 25.77443 | -100.10351 | 1276 ft | 17 kts | 301° |
| 2026-05-04 02:13 | 25.77505 | -100.10462 | 1277 ft | 17 kts | 301° |
| 2026-05-04 02:13 | 25.77568 | -100.10576 | 1278 ft | 18 kts | 301° |
| 2026-05-04 02:13 | 25.77633 | -100.10696 | 1279 ft | 19 kts | 300° |
| 2026-05-04 02:14 | 25.77702 | -100.10823 | 1280 ft | 19 kts | 302° |
| 2026-05-04 02:14 | 25.77773 | -100.10951 | 1280 ft | 20 kts | 301° |
| 2026-05-04 02:14 | 25.77837 | -100.11067 | 1281 ft | 11 kts | 301° |
| 2026-05-04 02:14 | 25.77877 | -100.11144 | 1281 ft | 12 kts | 301° |
| 2026-05-04 02:15 | 25.77918 | -100.11219 | 1281 ft | 8 kts | 301° |
| 2026-05-04 02:15 | 25.77903 | -100.11252 | 1281 ft | 5 kts | 205° |
| 2026-05-04 02:15 | 25.77865 | -100.11275 | 1281 ft | 7 kts | 211° |
| 2026-05-04 02:15 | 25.77856 | -100.11281 | 1281 ft | 0 kts | 211° |